sensor_id;sensor_type;location;lat;lon;timestamp;P1;durP1;ratioP1;P2;durP2;ratioP2
55007;SDS011;40902;45.116;21.296;2023-02-07T00:00:45;34.22;;;21.73;;
55007;SDS011;40902;45.116;21.296;2023-02-07T00:03:11;30.60;;;19.33;;
55007;SDS011;40902;45.116;21.296;2023-02-07T00:05:36;28.98;;;17.98;;
55007;SDS011;40902;45.116;21.296;2023-02-07T00:08:03;32.92;;;20.08;;
55007;SDS011;40902;45.116;21.296;2023-02-07T00:10:29;32.90;;;20.13;;
55007;SDS011;40902;45.116;21.296;2023-02-07T00:12:55;32.38;;;20.63;;
55007;SDS011;40902;45.116;21.296;2023-02-07T00:15:21;33.55;;;19.13;;
55007;SDS011;40902;45.116;21.296;2023-02-07T00:17:46;31.95;;;19.95;;
55007;SDS011;40902;45.116;21.296;2023-02-07T00:20:12;32.95;;;19.02;;
55007;SDS011;40902;45.116;21.296;2023-02-07T00:22:38;38.60;;;21.48;;
55007;SDS011;40902;45.116;21.296;2023-02-07T00:25:04;56.38;;;30.23;;
55007;SDS011;40902;45.116;21.296;2023-02-07T00:27:30;51.88;;;28.92;;
55007;SDS011;40902;45.116;21.296;2023-02-07T00:29:55;47.30;;;26.60;;
55007;SDS011;40902;45.116;21.296;2023-02-07T00:32:21;45.78;;;26.70;;
55007;SDS011;40902;45.116;21.296;2023-02-07T00:34:47;42.15;;;26.23;;
55007;SDS011;40902;45.116;21.296;2023-02-07T00:37:14;42.67;;;25.05;;
55007;SDS011;40902;45.116;21.296;2023-02-07T00:39:40;42.83;;;25.08;;
55007;SDS011;40902;45.116;21.296;2023-02-07T00:42:06;44.10;;;26.20;;
55007;SDS011;40902;45.116;21.296;2023-02-07T00:44:32;44.88;;;26.02;;
55007;SDS011;40902;45.116;21.296;2023-02-07T00:46:58;44.70;;;26.95;;
55007;SDS011;40902;45.116;21.296;2023-02-07T00:49:24;48.20;;;27.08;;
55007;SDS011;40902;45.116;21.296;2023-02-07T00:51:50;48.97;;;28.15;;
55007;SDS011;40902;45.116;21.296;2023-02-07T00:54:15;45.45;;;25.95;;
55007;SDS011;40902;45.116;21.296;2023-02-07T00:56:41;44.03;;;25.65;;
55007;SDS011;40902;45.116;21.296;2023-02-07T00:59:07;54.35;;;31.45;;
55007;SDS011;40902;45.116;21.296;2023-02-07T01:01:33;67.28;;;39.60;;
55007;SDS011;40902;45.116;21.296;2023-02-07T01:03:59;61.63;;;35.00;;
55007;SDS011;40902;45.116;21.296;2023-02-07T01:06:25;50.45;;;29.05;;
55007;SDS011;40902;45.116;21.296;2023-02-07T01:08:55;53.47;;;30.65;;
55007;SDS011;40902;45.116;21.296;2023-02-07T01:11:22;65.35;;;35.33;;
55007;SDS011;40902;45.116;21.296;2023-02-07T01:13:47;58.00;;;33.95;;
55007;SDS011;40902;45.116;21.296;2023-02-07T01:16:21;62.92;;;33.35;;
55007;SDS011;40902;45.116;21.296;2023-02-07T01:18:59;53.65;;;31.40;;
55007;SDS011;40902;45.116;21.296;2023-02-07T01:21:26;60.70;;;33.85;;
55007;SDS011;40902;45.116;21.296;2023-02-07T01:23:52;69.45;;;36.85;;
55007;SDS011;40902;45.116;21.296;2023-02-07T01:26:21;75.43;;;39.15;;
55007;SDS011;40902;45.116;21.296;2023-02-07T01:28:48;74.65;;;40.08;;
55007;SDS011;40902;45.116;21.296;2023-02-07T01:31:13;85.97;;;46.22;;
55007;SDS011;40902;45.116;21.296;2023-02-07T01:33:39;75.95;;;40.50;;
55007;SDS011;40902;45.116;21.296;2023-02-07T01:36:13;62.33;;;35.42;;
55007;SDS011;40902;45.116;21.296;2023-02-07T01:38:40;64.43;;;34.85;;
55007;SDS011;40902;45.116;21.296;2023-02-07T01:41:07;55.00;;;30.58;;
55007;SDS011;40902;45.116;21.296;2023-02-07T01:43:33;49.75;;;29.02;;
55007;SDS011;40902;45.116;21.296;2023-02-07T01:46:00;53.42;;;31.65;;
55007;SDS011;40902;45.116;21.296;2023-02-07T01:48:27;51.38;;;29.98;;
55007;SDS011;40902;45.116;21.296;2023-02-07T01:50:56;49.42;;;27.23;;
55007;SDS011;40902;45.116;21.296;2023-02-07T01:53:24;43.67;;;25.45;;
55007;SDS011;40902;45.116;21.296;2023-02-07T01:55:53;41.30;;;25.02;;
55007;SDS011;40902;45.116;21.296;2023-02-07T01:58:21;45.67;;;25.85;;
55007;SDS011;40902;45.116;21.296;2023-02-07T02:00:47;43.88;;;26.88;;
55007;SDS011;40902;45.116;21.296;2023-02-07T02:03:14;43.83;;;24.83;;
55007;SDS011;40902;45.116;21.296;2023-02-07T02:05:40;45.42;;;26.70;;
55007;SDS011;40902;45.116;21.296;2023-02-07T02:08:07;62.78;;;33.03;;
55007;SDS011;40902;45.116;21.296;2023-02-07T02:21:31;40.15;;;24.17;;
55007;SDS011;40902;45.116;21.296;2023-02-07T02:33:13;41.60;;;24.73;;
55007;SDS011;40902;45.116;21.296;2023-02-07T02:35:54;41.55;;;24.67;;
55007;SDS011;40902;45.116;21.296;2023-02-07T02:41:27;43.88;;;25.85;;
55007;SDS011;40902;45.116;21.296;2023-02-07T02:44:17;40.15;;;23.00;;
55007;SDS011;40902;45.116;21.296;2023-02-07T02:46:54;38.28;;;23.60;;
55007;SDS011;40902;45.116;21.296;2023-02-07T02:49:22;35.47;;;21.65;;
55007;SDS011;40902;45.116;21.296;2023-02-07T02:51:51;38.40;;;22.17;;
55007;SDS011;40902;45.116;21.296;2023-02-07T02:54:25;34.78;;;21.00;;
55007;SDS011;40902;45.116;21.296;2023-02-07T03:04:56;32.30;;;19.17;;
55007;SDS011;40902;45.116;21.296;2023-02-07T03:16:33;35.00;;;20.35;;
55007;SDS011;40902;45.116;21.296;2023-02-07T03:19:13;51.70;;;22.27;;
55007;SDS011;40902;45.116;21.296;2023-02-07T03:21:46;39.97;;;24.70;;
55007;SDS011;40902;45.116;21.296;2023-02-07T03:24:22;42.35;;;25.90;;
55007;SDS011;40902;45.116;21.296;2023-02-07T03:26:51;43.63;;;23.95;;
55007;SDS011;40902;45.116;21.296;2023-02-07T03:29:20;45.53;;;25.70;;
55007;SDS011;40902;45.116;21.296;2023-02-07T03:31:49;38.83;;;23.20;;
55007;SDS011;40902;45.116;21.296;2023-02-07T03:34:20;43.67;;;23.55;;
55007;SDS011;40902;45.116;21.296;2023-02-07T03:36:50;37.55;;;22.98;;
55007;SDS011;40902;45.116;21.296;2023-02-07T03:39:21;41.30;;;23.67;;
55007;SDS011;40902;45.116;21.296;2023-02-07T03:41:59;39.45;;;23.77;;
55007;SDS011;40902;45.116;21.296;2023-02-07T03:44:27;42.63;;;24.60;;
55007;SDS011;40902;45.116;21.296;2023-02-07T03:46:55;42.30;;;24.42;;
55007;SDS011;40902;45.116;21.296;2023-02-07T03:49:21;41.92;;;23.67;;
55007;SDS011;40902;45.116;21.296;2023-02-07T03:51:47;41.58;;;23.02;;
55007;SDS011;40902;45.116;21.296;2023-02-07T03:54:14;42.03;;;23.42;;
55007;SDS011;40902;45.116;21.296;2023-02-07T03:56:39;40.00;;;21.88;;
55007;SDS011;40902;45.116;21.296;2023-02-07T03:59:05;58.13;;;28.65;;
55007;SDS011;40902;45.116;21.296;2023-02-07T04:01:32;59.60;;;28.60;;
55007;SDS011;40902;45.116;21.296;2023-02-07T04:04:01;49.40;;;27.13;;
55007;SDS011;40902;45.116;21.296;2023-02-07T04:06:27;46.03;;;24.83;;
55007;SDS011;40902;45.116;21.296;2023-02-07T04:08:53;41.35;;;24.15;;
55007;SDS011;40902;45.116;21.296;2023-02-07T04:11:19;46.13;;;24.65;;
55007;SDS011;40902;45.116;21.296;2023-02-07T04:13:44;51.47;;;29.23;;
55007;SDS011;40902;45.116;21.296;2023-02-07T04:16:10;44.67;;;25.45;;
55007;SDS011;40902;45.116;21.296;2023-02-07T04:18:35;54.88;;;27.73;;
55007;SDS011;40902;45.116;21.296;2023-02-07T04:21:05;45.67;;;27.38;;
55007;SDS011;40902;45.116;21.296;2023-02-07T04:23:32;55.00;;;31.55;;
55007;SDS011;40902;45.116;21.296;2023-02-07T04:25:59;50.22;;;29.00;;
55007;SDS011;40902;45.116;21.296;2023-02-07T04:28:25;48.45;;;28.35;;
55007;SDS011;40902;45.116;21.296;2023-02-07T04:30:51;50.15;;;28.85;;
55007;SDS011;40902;45.116;21.296;2023-02-07T04:33:17;60.45;;;35.00;;
55007;SDS011;40902;45.116;21.296;2023-02-07T04:35:43;46.42;;;26.15;;
55007;SDS011;40902;45.116;21.296;2023-02-07T04:38:09;46.65;;;26.42;;
55007;SDS011;40902;45.116;21.296;2023-02-07T04:40:34;46.17;;;27.48;;
55007;SDS011;40902;45.116;21.296;2023-02-07T04:43:02;45.33;;;25.63;;
55007;SDS011;40902;45.116;21.296;2023-02-07T04:45:28;41.15;;;25.17;;
55007;SDS011;40902;45.116;21.296;2023-02-07T04:47:53;43.38;;;25.80;;
55007;SDS011;40902;45.116;21.296;2023-02-07T04:50:19;39.55;;;22.58;;
55007;SDS011;40902;45.116;21.296;2023-02-07T04:52:45;34.15;;;21.30;;
55007;SDS011;40902;45.116;21.296;2023-02-07T04:55:10;36.55;;;20.88;;
55007;SDS011;40902;45.116;21.296;2023-02-07T04:57:36;36.80;;;21.48;;
55007;SDS011;40902;45.116;21.296;2023-02-07T05:00:02;33.78;;;20.90;;
55007;SDS011;40902;45.116;21.296;2023-02-07T05:02:28;36.13;;;22.40;;
55007;SDS011;40902;45.116;21.296;2023-02-07T05:04:54;34.53;;;21.52;;
55007;SDS011;40902;45.116;21.296;2023-02-07T05:07:20;34.97;;;21.35;;
55007;SDS011;40902;45.116;21.296;2023-02-07T05:09:45;41.10;;;24.58;;
55007;SDS011;40902;45.116;21.296;2023-02-07T05:12:11;46.78;;;27.10;;
55007;SDS011;40902;45.116;21.296;2023-02-07T05:14:37;43.95;;;26.02;;
55007;SDS011;40902;45.116;21.296;2023-02-07T05:17:02;59.08;;;33.72;;
55007;SDS011;40902;45.116;21.296;2023-02-07T05:19:28;67.88;;;39.72;;
55007;SDS011;40902;45.116;21.296;2023-02-07T05:21:54;47.47;;;30.05;;
55007;SDS011;40902;45.116;21.296;2023-02-07T05:24:20;45.75;;;26.27;;
55007;SDS011;40902;45.116;21.296;2023-02-07T05:26:45;39.95;;;23.35;;
55007;SDS011;40902;45.116;21.296;2023-02-07T05:29:11;41.70;;;24.58;;
55007;SDS011;40902;45.116;21.296;2023-02-07T05:31:37;43.40;;;25.33;;
55007;SDS011;40902;45.116;21.296;2023-02-07T05:34:22;43.22;;;24.75;;
55007;SDS011;40902;45.116;21.296;2023-02-07T05:36:47;46.70;;;25.23;;
55007;SDS011;40902;45.116;21.296;2023-02-07T05:39:13;53.28;;;28.10;;
55007;SDS011;40902;45.116;21.296;2023-02-07T05:41:39;53.33;;;29.67;;
55007;SDS011;40902;45.116;21.296;2023-02-07T05:44:05;50.92;;;28.55;;
55007;SDS011;40902;45.116;21.296;2023-02-07T05:46:31;52.30;;;28.33;;
55007;SDS011;40902;45.116;21.296;2023-02-07T05:48:56;45.85;;;25.95;;
55007;SDS011;40902;45.116;21.296;2023-02-07T05:51:22;45.13;;;25.42;;
55007;SDS011;40902;45.116;21.296;2023-02-07T05:53:49;37.22;;;23.77;;
55007;SDS011;40902;45.116;21.296;2023-02-07T05:56:15;41.97;;;24.58;;
55007;SDS011;40902;45.116;21.296;2023-02-07T05:58:41;42.90;;;25.40;;
55007;SDS011;40902;45.116;21.296;2023-02-07T06:01:06;41.63;;;24.73;;
55007;SDS011;40902;45.116;21.296;2023-02-07T06:03:32;43.20;;;25.48;;
55007;SDS011;40902;45.116;21.296;2023-02-07T06:05:58;46.17;;;26.55;;
55007;SDS011;40902;45.116;21.296;2023-02-07T06:08:23;45.30;;;27.10;;
55007;SDS011;40902;45.116;21.296;2023-02-07T06:10:49;50.05;;;26.70;;
55007;SDS011;40902;45.116;21.296;2023-02-07T06:13:15;46.20;;;26.90;;
55007;SDS011;40902;45.116;21.296;2023-02-07T06:15:40;44.92;;;25.40;;
55007;SDS011;40902;45.116;21.296;2023-02-07T06:18:06;48.53;;;27.95;;
55007;SDS011;40902;45.116;21.296;2023-02-07T06:20:32;48.97;;;28.75;;
55007;SDS011;40902;45.116;21.296;2023-02-07T06:22:57;55.30;;;32.03;;
55007;SDS011;40902;45.116;21.296;2023-02-07T06:25:23;56.92;;;32.20;;
55007;SDS011;40902;45.116;21.296;2023-02-07T06:27:48;61.13;;;33.72;;
55007;SDS011;40902;45.116;21.296;2023-02-07T06:30:14;57.53;;;32.00;;
55007;SDS011;40902;45.116;21.296;2023-02-07T06:32:40;54.10;;;31.60;;
55007;SDS011;40902;45.116;21.296;2023-02-07T06:35:06;49.95;;;27.40;;
55007;SDS011;40902;45.116;21.296;2023-02-07T06:37:32;45.05;;;27.08;;
55007;SDS011;40902;45.116;21.296;2023-02-07T06:39:58;53.28;;;29.67;;
55007;SDS011;40902;45.116;21.296;2023-02-07T06:42:24;69.70;;;35.80;;
55007;SDS011;40902;45.116;21.296;2023-02-07T06:44:50;60.00;;;33.80;;
55007;SDS011;40902;45.116;21.296;2023-02-07T06:47:15;68.45;;;37.75;;
55007;SDS011;40902;45.116;21.296;2023-02-07T06:49:43;88.93;;;45.75;;
55007;SDS011;40902;45.116;21.296;2023-02-07T06:52:10;86.20;;;48.17;;
55007;SDS011;40902;45.116;21.296;2023-02-07T06:54:36;56.60;;;31.88;;
55007;SDS011;40902;45.116;21.296;2023-02-07T06:57:01;43.40;;;25.40;;
55007;SDS011;40902;45.116;21.296;2023-02-07T06:59:27;66.53;;;36.58;;
55007;SDS011;40902;45.116;21.296;2023-02-07T07:01:53;55.88;;;32.95;;
55007;SDS011;40902;45.116;21.296;2023-02-07T07:04:18;51.45;;;30.50;;
55007;SDS011;40902;45.116;21.296;2023-02-07T07:06:45;52.90;;;31.38;;
55007;SDS011;40902;45.116;21.296;2023-02-07T07:09:11;54.05;;;30.88;;
55007;SDS011;40902;45.116;21.296;2023-02-07T07:11:37;47.17;;;29.25;;
55007;SDS011;40902;45.116;21.296;2023-02-07T07:14:07;45.35;;;27.50;;
55007;SDS011;40902;45.116;21.296;2023-02-07T07:16:34;46.30;;;26.45;;
55007;SDS011;40902;45.116;21.296;2023-02-07T07:18:59;45.45;;;26.05;;
55007;SDS011;40902;45.116;21.296;2023-02-07T07:21:25;42.08;;;24.45;;
55007;SDS011;40902;45.116;21.296;2023-02-07T07:23:52;40.65;;;25.40;;
55007;SDS011;40902;45.116;21.296;2023-02-07T07:26:19;43.38;;;23.45;;
55007;SDS011;40902;45.116;21.296;2023-02-07T07:28:45;39.35;;;23.15;;
55007;SDS011;40902;45.116;21.296;2023-02-07T07:31:11;39.40;;;23.38;;
55007;SDS011;40902;45.116;21.296;2023-02-07T07:33:38;42.80;;;24.50;;
55007;SDS011;40902;45.116;21.296;2023-02-07T07:36:04;43.25;;;24.75;;
55007;SDS011;40902;45.116;21.296;2023-02-07T07:38:30;46.55;;;26.27;;
55007;SDS011;40902;45.116;21.296;2023-02-07T07:40:57;44.22;;;24.38;;
55007;SDS011;40902;45.116;21.296;2023-02-07T07:43:24;37.58;;;22.33;;
55007;SDS011;40902;45.116;21.296;2023-02-07T07:45:50;39.83;;;21.67;;
55007;SDS011;40902;45.116;21.296;2023-02-07T07:48:20;33.72;;;18.75;;
55007;SDS011;40902;45.116;21.296;2023-02-07T07:50:47;33.58;;;19.27;;
55007;SDS011;40902;45.116;21.296;2023-02-07T07:53:13;31.73;;;19.10;;
55007;SDS011;40902;45.116;21.296;2023-02-07T07:55:39;35.53;;;21.90;;
55007;SDS011;40902;45.116;21.296;2023-02-07T07:58:05;34.03;;;19.70;;
55007;SDS011;40902;45.116;21.296;2023-02-07T08:00:31;32.80;;;19.52;;
55007;SDS011;40902;45.116;21.296;2023-02-07T08:02:57;29.80;;;16.95;;
55007;SDS011;40902;45.116;21.296;2023-02-07T08:05:23;29.83;;;16.58;;
55007;SDS011;40902;45.116;21.296;2023-02-07T08:07:49;31.48;;;17.63;;
55007;SDS011;40902;45.116;21.296;2023-02-07T08:10:15;28.63;;;16.90;;
55007;SDS011;40902;45.116;21.296;2023-02-07T08:12:41;31.48;;;18.85;;
55007;SDS011;40902;45.116;21.296;2023-02-07T08:15:07;30.75;;;18.50;;
55007;SDS011;40902;45.116;21.296;2023-02-07T08:17:33;32.90;;;18.42;;
55007;SDS011;40902;45.116;21.296;2023-02-07T08:20:00;32.83;;;19.38;;
55007;SDS011;40902;45.116;21.296;2023-02-07T08:22:26;33.92;;;19.77;;
55007;SDS011;40902;45.116;21.296;2023-02-07T08:24:51;35.83;;;20.50;;
55007;SDS011;40902;45.116;21.296;2023-02-07T08:27:17;36.78;;;21.58;;
55007;SDS011;40902;45.116;21.296;2023-02-07T08:29:43;35.00;;;20.38;;
55007;SDS011;40902;45.116;21.296;2023-02-07T08:32:10;42.47;;;24.35;;
55007;SDS011;40902;45.116;21.296;2023-02-07T08:34:35;37.72;;;22.70;;
55007;SDS011;40902;45.116;21.296;2023-02-07T08:37:10;38.08;;;22.33;;
55007;SDS011;40902;45.116;21.296;2023-02-07T08:39:36;47.50;;;27.02;;
55007;SDS011;40902;45.116;21.296;2023-02-07T08:42:02;44.95;;;23.63;;
55007;SDS011;40902;45.116;21.296;2023-02-07T08:44:29;36.13;;;20.65;;
55007;SDS011;40902;45.116;21.296;2023-02-07T08:46:56;37.05;;;22.13;;
55007;SDS011;40902;45.116;21.296;2023-02-07T08:49:21;33.38;;;19.80;;
55007;SDS011;40902;45.116;21.296;2023-02-07T08:51:47;36.70;;;19.70;;
55007;SDS011;40902;45.116;21.296;2023-02-07T08:54:13;32.80;;;19.95;;
55007;SDS011;40902;45.116;21.296;2023-02-07T08:56:39;38.33;;;21.60;;
55007;SDS011;40902;45.116;21.296;2023-02-07T08:59:04;34.05;;;19.92;;
55007;SDS011;40902;45.116;21.296;2023-02-07T09:01:30;32.75;;;19.60;;
55007;SDS011;40902;45.116;21.296;2023-02-07T09:03:56;34.90;;;19.88;;
55007;SDS011;40902;45.116;21.296;2023-02-07T09:06:22;32.15;;;19.52;;
55007;SDS011;40902;45.116;21.296;2023-02-07T09:08:49;33.45;;;19.77;;
55007;SDS011;40902;45.116;21.296;2023-02-07T09:11:15;37.08;;;20.15;;
55007;SDS011;40902;45.116;21.296;2023-02-07T09:13:41;37.58;;;20.27;;
55007;SDS011;40902;45.116;21.296;2023-02-07T09:16:09;37.80;;;21.65;;
55007;SDS011;40902;45.116;21.296;2023-02-07T09:18:36;35.33;;;20.48;;
55007;SDS011;40902;45.116;21.296;2023-02-07T09:21:03;36.70;;;21.00;;
55007;SDS011;40902;45.116;21.296;2023-02-07T09:23:29;34.25;;;20.73;;
55007;SDS011;40902;45.116;21.296;2023-02-07T09:25:59;35.80;;;20.35;;
55007;SDS011;40902;45.116;21.296;2023-02-07T09:28:26;38.92;;;21.20;;
55007;SDS011;40902;45.116;21.296;2023-02-07T09:30:52;36.38;;;21.48;;
55007;SDS011;40902;45.116;21.296;2023-02-07T09:33:18;35.47;;;20.10;;
55007;SDS011;40902;45.116;21.296;2023-02-07T09:35:45;34.50;;;20.30;;
55007;SDS011;40902;45.116;21.296;2023-02-07T09:38:15;36.38;;;20.95;;
55007;SDS011;40902;45.116;21.296;2023-02-07T09:40:43;34.45;;;20.60;;
55007;SDS011;40902;45.116;21.296;2023-02-07T09:46:27;37.38;;;22.02;;
55007;SDS011;40902;45.116;21.296;2023-02-07T09:49:04;36.33;;;20.65;;
55007;SDS011;40902;45.116;21.296;2023-02-07T09:51:36;36.38;;;22.23;;
55007;SDS011;40902;45.116;21.296;2023-02-07T09:54:11;39.47;;;22.85;;
55007;SDS011;40902;45.116;21.296;2023-02-07T09:56:53;35.65;;;20.73;;
55007;SDS011;40902;45.116;21.296;2023-02-07T10:04:45;38.25;;;24.17;;
55007;SDS011;40902;45.116;21.296;2023-02-07T10:07:14;37.38;;;21.40;;
55007;SDS011;40902;45.116;21.296;2023-02-07T10:09:41;32.83;;;20.08;;
55007;SDS011;40902;45.116;21.296;2023-02-07T10:12:12;33.58;;;20.33;;
55007;SDS011;40902;45.116;21.296;2023-02-07T10:17:33;36.58;;;22.88;;
55007;SDS011;40902;45.116;21.296;2023-02-07T10:28:42;36.85;;;20.27;;
55007;SDS011;40902;45.116;21.296;2023-02-07T10:31:23;36.08;;;21.75;;
55007;SDS011;40902;45.116;21.296;2023-02-07T10:33:52;33.53;;;21.80;;
55007;SDS011;40902;45.116;21.296;2023-02-07T10:36:22;36.55;;;21.70;;
55007;SDS011;40902;45.116;21.296;2023-02-07T10:38:54;41.80;;;25.35;;
55007;SDS011;40902;45.116;21.296;2023-02-07T10:41:35;35.33;;;21.77;;
55007;SDS011;40902;45.116;21.296;2023-02-07T10:44:06;37.22;;;22.42;;
55007;SDS011;40902;45.116;21.296;2023-02-07T10:46:36;37.92;;;21.63;;
55007;SDS011;40902;45.116;21.296;2023-02-07T10:49:04;33.15;;;20.73;;
55007;SDS011;40902;45.116;21.296;2023-02-07T10:51:40;35.80;;;21.65;;
55007;SDS011;40902;45.116;21.296;2023-02-07T10:54:09;34.75;;;21.40;;
55007;SDS011;40902;45.116;21.296;2023-02-07T10:56:41;35.28;;;21.02;;
55007;SDS011;40902;45.116;21.296;2023-02-07T10:59:27;39.35;;;23.48;;
55007;SDS011;40902;45.116;21.296;2023-02-07T11:01:57;35.35;;;21.55;;
55007;SDS011;40902;45.116;21.296;2023-02-07T11:04:34;37.42;;;21.40;;
55007;SDS011;40902;45.116;21.296;2023-02-07T11:07:02;35.13;;;21.63;;
55007;SDS011;40902;45.116;21.296;2023-02-07T11:09:31;42.72;;;25.30;;
55007;SDS011;40902;45.116;21.296;2023-02-07T11:12:01;36.25;;;22.27;;
55007;SDS011;40902;45.116;21.296;2023-02-07T11:15:05;36.10;;;21.48;;
55007;SDS011;40902;45.116;21.296;2023-02-07T11:17:33;34.05;;;21.80;;
55007;SDS011;40902;45.116;21.296;2023-02-07T11:20:03;36.08;;;21.80;;
55007;SDS011;40902;45.116;21.296;2023-02-07T11:22:30;37.67;;;23.00;;
55007;SDS011;40902;45.116;21.296;2023-02-07T11:25:00;37.80;;;21.63;;
55007;SDS011;40902;45.116;21.296;2023-02-07T11:27:33;36.08;;;21.70;;
55007;SDS011;40902;45.116;21.296;2023-02-07T11:32:30;37.05;;;21.33;;
55007;SDS011;40902;45.116;21.296;2023-02-07T11:34:57;36.42;;;20.75;;
55007;SDS011;40902;45.116;21.296;2023-02-07T11:37:37;32.30;;;20.30;;
55007;SDS011;40902;45.116;21.296;2023-02-07T11:40:25;36.00;;;21.77;;
55007;SDS011;40902;45.116;21.296;2023-02-07T11:43:01;35.03;;;20.88;;
55007;SDS011;40902;45.116;21.296;2023-02-07T11:48:00;40.70;;;23.83;;
55007;SDS011;40902;45.116;21.296;2023-02-07T11:50:31;34.65;;;20.55;;
55007;SDS011;40902;45.116;21.296;2023-02-07T11:52:57;33.78;;;20.15;;
55007;SDS011;40902;45.116;21.296;2023-02-07T11:55:25;31.65;;;20.17;;
55007;SDS011;40902;45.116;21.296;2023-02-07T11:58:00;39.65;;;23.42;;
55007;SDS011;40902;45.116;21.296;2023-02-07T12:00:33;37.05;;;21.90;;
55007;SDS011;40902;45.116;21.296;2023-02-07T12:03:02;32.83;;;20.33;;
55007;SDS011;40902;45.116;21.296;2023-02-07T12:05:37;34.97;;;20.60;;
55007;SDS011;40902;45.116;21.296;2023-02-07T12:08:11;30.70;;;20.08;;
55007;SDS011;40902;45.116;21.296;2023-02-07T12:10:41;34.75;;;20.88;;
55007;SDS011;40902;45.116;21.296;2023-02-07T12:13:22;35.97;;;22.33;;
55007;SDS011;40902;45.116;21.296;2023-02-07T12:15:51;32.00;;;20.90;;
55007;SDS011;40902;45.116;21.296;2023-02-07T12:18:27;38.22;;;22.10;;
55007;SDS011;40902;45.116;21.296;2023-02-07T12:21:00;34.95;;;20.50;;
55007;SDS011;40902;45.116;21.296;2023-02-07T12:26:00;41.22;;;23.70;;
55007;SDS011;40902;45.116;21.296;2023-02-07T12:33:56;32.25;;;18.92;;
55007;SDS011;40902;45.116;21.296;2023-02-07T12:36:33;32.67;;;20.30;;
55007;SDS011;40902;45.116;21.296;2023-02-07T12:39:12;31.92;;;20.15;;
55007;SDS011;40902;45.116;21.296;2023-02-07T12:44:55;35.15;;;19.73;;
55007;SDS011;40902;45.116;21.296;2023-02-07T12:50:03;37.00;;;23.00;;
55007;SDS011;40902;45.116;21.296;2023-02-07T12:55:23;34.45;;;20.42;;
55007;SDS011;40902;45.116;21.296;2023-02-07T13:08:44;35.47;;;19.85;;
55007;SDS011;40902;45.116;21.296;2023-02-07T13:14:33;31.13;;;17.27;;
55007;SDS011;40902;45.116;21.296;2023-02-07T13:24:58;30.98;;;18.77;;
55007;SDS011;40902;45.116;21.296;2023-02-07T13:27:25;41.35;;;24.15;;
55007;SDS011;40902;45.116;21.296;2023-02-07T13:29:53;29.73;;;17.90;;
55007;SDS011;40902;45.116;21.296;2023-02-07T13:32:24;30.73;;;19.60;;
55007;SDS011;40902;45.116;21.296;2023-02-07T13:37:39;42.70;;;24.27;;
55007;SDS011;40902;45.116;21.296;2023-02-07T13:48:49;26.48;;;15.75;;
55007;SDS011;40902;45.116;21.296;2023-02-07T13:51:26;27.58;;;16.85;;
55007;SDS011;40902;45.116;21.296;2023-02-07T13:56:54;26.95;;;17.33;;
55007;SDS011;40902;45.116;21.296;2023-02-07T13:59:42;28.80;;;16.73;;
55007;SDS011;40902;45.116;21.296;2023-02-07T14:02:28;25.58;;;16.55;;
55007;SDS011;40902;45.116;21.296;2023-02-07T14:04:56;31.60;;;18.48;;
55007;SDS011;40902;45.116;21.296;2023-02-07T14:07:31;27.73;;;17.50;;
55007;SDS011;40902;45.116;21.296;2023-02-07T14:09:59;29.60;;;17.08;;
55007;SDS011;40902;45.116;21.296;2023-02-07T14:12:27;28.45;;;18.05;;
55007;SDS011;40902;45.116;21.296;2023-02-07T14:14:55;26.85;;;16.77;;
55007;SDS011;40902;45.116;21.296;2023-02-07T14:18:32;32.33;;;17.98;;
55007;SDS011;40902;45.116;21.296;2023-02-07T14:21:02;30.98;;;17.10;;
55007;SDS011;40902;45.116;21.296;2023-02-07T14:31:59;29.38;;;18.05;;
55007;SDS011;40902;45.116;21.296;2023-02-07T14:34:30;30.73;;;19.05;;
55007;SDS011;40902;45.116;21.296;2023-02-07T14:37:20;28.42;;;17.27;;
55007;SDS011;40902;45.116;21.296;2023-02-07T14:40:07;32.42;;;18.10;;
55007;SDS011;40902;45.116;21.296;2023-02-07T14:53:55;23.77;;;14.50;;
55007;SDS011;40902;45.116;21.296;2023-02-07T14:59:06;20.38;;;12.68;;
55007;SDS011;40902;45.116;21.296;2023-02-07T15:01:35;19.65;;;12.60;;
55007;SDS011;40902;45.116;21.296;2023-02-07T15:04:02;22.02;;;13.07;;
55007;SDS011;40902;45.116;21.296;2023-02-07T15:06:35;21.60;;;12.65;;
55007;SDS011;40902;45.116;21.296;2023-02-07T15:09:03;24.27;;;14.47;;
55007;SDS011;40902;45.116;21.296;2023-02-07T15:11:29;22.85;;;13.70;;
55007;SDS011;40902;45.116;21.296;2023-02-07T15:13:56;22.90;;;14.32;;
55007;SDS011;40902;45.116;21.296;2023-02-07T15:16:27;23.55;;;15.18;;
55007;SDS011;40902;45.116;21.296;2023-02-07T15:19:06;21.50;;;13.23;;
55007;SDS011;40902;45.116;21.296;2023-02-07T15:22:07;29.42;;;15.07;;
55007;SDS011;40902;45.116;21.296;2023-02-07T15:24:39;28.42;;;14.50;;
55007;SDS011;40902;45.116;21.296;2023-02-07T15:27:06;25.85;;;14.70;;
55007;SDS011;40902;45.116;21.296;2023-02-07T15:29:42;26.88;;;15.73;;
55007;SDS011;40902;45.116;21.296;2023-02-07T15:34:47;28.52;;;16.98;;
55007;SDS011;40902;45.116;21.296;2023-02-07T15:37:14;31.92;;;17.77;;
55007;SDS011;40902;45.116;21.296;2023-02-07T15:39:43;29.13;;;17.13;;
55007;SDS011;40902;45.116;21.296;2023-02-07T15:42:16;35.38;;;18.55;;
55007;SDS011;40902;45.116;21.296;2023-02-07T15:44:50;32.10;;;18.63;;
55007;SDS011;40902;45.116;21.296;2023-02-07T15:49:59;30.70;;;17.38;;
55007;SDS011;40902;45.116;21.296;2023-02-07T15:52:27;27.15;;;17.10;;
55007;SDS011;40902;45.116;21.296;2023-02-07T15:54:54;32.85;;;18.60;;
55007;SDS011;40902;45.116;21.296;2023-02-07T16:00:18;34.00;;;17.92;;
55007;SDS011;40902;45.116;21.296;2023-02-07T16:02:59;32.65;;;17.95;;
55007;SDS011;40902;45.116;21.296;2023-02-07T16:07:56;37.15;;;18.70;;
55007;SDS011;40902;45.116;21.296;2023-02-07T16:12:52;42.17;;;22.50;;
55007;SDS011;40902;45.116;21.296;2023-02-07T16:15:30;43.40;;;24.05;;
55007;SDS011;40902;45.116;21.296;2023-02-07T16:18:00;43.72;;;24.70;;
55007;SDS011;40902;45.116;21.296;2023-02-07T16:20:28;51.28;;;27.30;;
55007;SDS011;40902;45.116;21.296;2023-02-07T16:22:56;48.80;;;26.63;;
55007;SDS011;40902;45.116;21.296;2023-02-07T16:25:31;46.75;;;25.55;;
55007;SDS011;40902;45.116;21.296;2023-02-07T16:27:58;41.92;;;25.40;;
55007;SDS011;40902;45.116;21.296;2023-02-07T16:30:29;43.75;;;27.23;;
55007;SDS011;40902;45.116;21.296;2023-02-07T16:32:56;44.53;;;27.70;;
55007;SDS011;40902;45.116;21.296;2023-02-07T16:35:26;47.90;;;28.77;;
55007;SDS011;40902;45.116;21.296;2023-02-07T16:37:52;49.35;;;27.45;;
55007;SDS011;40902;45.116;21.296;2023-02-07T16:40:19;48.05;;;28.20;;
55007;SDS011;40902;45.116;21.296;2023-02-07T16:42:46;48.15;;;29.02;;
55007;SDS011;40902;45.116;21.296;2023-02-07T16:45:25;50.33;;;31.23;;
55007;SDS011;40902;45.116;21.296;2023-02-07T16:47:52;53.47;;;33.20;;
55007;SDS011;40902;45.116;21.296;2023-02-07T16:52:46;50.30;;;32.15;;
55007;SDS011;40902;45.116;21.296;2023-02-07T16:55:13;53.35;;;31.52;;